Time,TemperatureF,DewpointF,PressureIn,WindDirection,WindDirectionDegrees,WindSpeedMPH,WindSpeedGustMPH,Humidity,HourlyPrecipIn,Conditions,Clouds,dailyrainin,SoftwareType,DateUTC
2013-08-19 00:11:00,63.0,61.0,30.11,SE,128,0.0,0.0,94,0.00,,,0.00,,2013-08-19 05:11:00,
2013-08-19 00:22:00,63.0,61.0,30.11,SE,128,0.0,0.0,94,0.00,,,0.00,,2013-08-19 05:22:00,
2013-08-19 00:42:00,62.0,61.0,30.11,SE,128,0.0,0.0,95,0.00,,,0.00,,2013-08-19 05:42:00,
2013-08-19 00:52:00,62.0,61.0,30.11,SE,128,0.0,0.0,95,0.00,,,0.00,,2013-08-19 05:52:00,
2013-08-19 01:11:00,62.0,61.0,30.11,SE,128,0.0,0.0,95,0.00,,,0.00,,2013-08-19 06:11:00,
2013-08-19 01:21:00,62.0,61.0,30.11,SE,128,0.0,0.0,95,0.00,,,0.00,,2013-08-19 06:21:00,
2013-08-19 01:42:00,62.0,61.0,30.10,SE,128,0.0,0.0,95,0.00,,,0.00,,2013-08-19 06:42:00,
2013-08-19 01:52:00,61.0,60.0,30.10,SE,128,0.0,0.0,95,0.00,,,0.00,,2013-08-19 06:52:00,
2013-08-19 02:11:00,61.0,60.0,30.10,SE,128,0.0,0.0,95,0.00,,,0.00,,2013-08-19 07:11:00,
2013-08-19 02:21:00,61.0,60.0,30.10,SE,128,0.0,0.0,95,0.00,,,0.00,,2013-08-19 07:21:00,
2013-08-19 02:42:00,61.0,60.0,30.10,SE,128,0.0,0.0,95,0.00,,,0.00,,2013-08-19 07:42:00,
2013-08-19 02:52:00,60.0,59.0,30.10,SE,128,0.0,0.0,95,0.00,,,0.00,,2013-08-19 07:52:00,
2013-08-19 03:11:00,60.0,59.0,30.10,SE,128,0.0,0.0,96,0.00,,,0.00,,2013-08-19 08:11:00,
2013-08-19 03:21:00,60.0,59.0,30.10,SE,128,0.0,0.0,96,0.00,,,0.00,,2013-08-19 08:21:00,
2013-08-19 03:42:00,60.0,59.0,30.10,SE,128,0.0,0.0,95,0.00,,,0.00,,2013-08-19 08:42:00,
2013-08-19 03:52:00,59.0,58.0,30.10,SE,128,0.0,0.0,95,0.00,,,0.00,,2013-08-19 08:52:00,
2013-08-19 04:11:00,59.0,58.0,30.10,SE,128,0.0,0.0,96,0.00,,,0.00,,2013-08-19 09:11:00,
2013-08-19 04:22:00,59.0,58.0,30.10,SE,128,0.0,0.0,96,0.00,,,0.00,,2013-08-19 09:22:00,
2013-08-19 04:33:00,59.0,58.0,30.10,SE,128,0.0,0.0,96,0.00,,,0.00,,2013-08-19 09:33:00,
2013-08-19 04:43:00,59.0,58.0,30.10,SE,128,0.0,0.0,96,0.00,,,0.00,,2013-08-19 09:43:00,
2013-08-19 04:53:00,59.0,58.0,30.10,SE,128,0.0,1.0,96,0.00,,,0.00,,2013-08-19 09:53:00,
2013-08-19 05:12:00,59.0,58.0,30.10,SE,128,0.0,0.0,96,0.00,,,0.00,,2013-08-19 10:12:00,
2013-08-19 05:23:00,59.0,58.0,30.11,SE,128,0.0,0.0,96,0.00,,,0.00,,2013-08-19 10:23:00,
2013-08-19 05:43:00,59.0,58.0,30.11,SE,128,0.0,0.0,96,0.00,,,0.00,,2013-08-19 10:43:00,
2013-08-19 05:52:00,58.0,57.0,30.11,SE,128,0.0,0.0,96,0.00,,,0.00,,2013-08-19 10:52:00,
2013-08-19 06:12:00,58.0,57.0,30.11,SE,128,0.0,0.0,96,0.00,,,0.00,,2013-08-19 11:12:00,
2013-08-19 06:22:00,58.0,57.0,30.11,SE,128,0.0,0.0,96,0.00,,,0.00,,2013-08-19 11:22:00,
2013-08-19 06:45:00,58.0,57.0,30.11,SE,128,0.0,0.0,97,0.00,,,0.00,,2013-08-19 11:45:00,
2013-08-19 06:52:00,58.0,57.0,30.12,SE,128,0.0,0.0,96,0.00,,,0.00,,2013-08-19 11:52:00,
2013-08-19 07:11:00,59.0,58.0,30.12,SE,128,0.0,0.0,97,0.00,,,0.00,,2013-08-19 12:11:00,
2013-08-19 07:21:00,60.0,59.0,30.12,SE,128,0.0,0.0,97,0.00,,,0.00,,2013-08-19 12:21:00,
2013-08-19 07:42:00,61.0,60.0,30.12,SE,128,0.0,0.0,97,0.00,,,0.00,,2013-08-19 12:42:00,
2013-08-19 07:52:00,63.0,62.0,30.13,SE,128,0.0,0.0,98,0.00,,,0.00,,2013-08-19 12:52:00,
2013-08-19 08:13:00,64.0,63.0,30.13,SSE,154,0.0,0.0,97,0.00,,,0.00,,2013-08-19 13:13:00,
2013-08-19 08:22:00,66.0,65.0,30.13,SSE,154,0.0,0.0,97,0.00,,,0.00,,2013-08-19 13:22:00,
2013-08-19 08:42:00,67.0,66.0,30.13,SSE,154,0.0,0.0,95,0.00,,,0.00,,2013-08-19 13:42:00,
2013-08-19 08:52:00,69.0,67.0,30.14,SSE,154,0.0,0.0,92,0.00,,,0.00,,2013-08-19 13:52:00,
2013-08-19 09:11:00,71.0,67.0,30.14,East,86,0.0,0.0,88,0.00,,,0.00,,2013-08-19 14:11:00,
2013-08-19 09:21:00,73.0,67.0,30.14,East,86,0.0,0.0,82,0.00,,,0.00,,2013-08-19 14:21:00,
2013-08-19 09:42:00,76.0,69.0,30.14,East,86,0.0,0.0,79,0.00,,,0.00,,2013-08-19 14:42:00,
2013-08-19 09:52:00,77.0,68.0,30.14,NE,55,0.0,0.0,74,0.00,,,0.00,,2013-08-19 14:52:00,
2013-08-19 10:11:00,78.0,69.0,30.14,NE,55,0.0,0.0,73,0.00,,,0.00,,2013-08-19 15:11:00,
2013-08-19 10:22:00,79.0,68.0,30.14,NE,55,0.0,0.0,68,0.00,,,0.00,,2013-08-19 15:22:00,
2013-08-19 10:44:00,81.0,69.0,30.14,ENE,61,0.0,0.0,68,0.00,,,0.00,,2013-08-19 15:44:00,
2013-08-19 10:54:00,81.0,69.0,30.14,NE,38,0.0,0.0,66,0.00,,,0.00,,2013-08-19 15:54:00,
2013-08-19 11:13:00,82.0,69.0,30.13,NE,51,0.0,1.0,64,0.00,,,0.00,,2013-08-19 16:13:00,
2013-08-19 11:23:00,82.0,68.0,30.13,NE,38,0.0,0.0,63,0.00,,,0.00,,2013-08-19 16:23:00,
2013-08-19 11:47:00,83.0,67.0,30.13,NE,49,0.0,0.0,59,0.00,,,0.00,,2013-08-19 16:47:00,
2013-08-19 12:12:00,83.0,67.0,30.12,NNW,348,0.0,4.0,58,0.00,,,0.00,,2013-08-19 17:12:00,
2013-08-19 12:30:00,83.0,-99.9,30.12,SSE,159,0.0,4.0,60,0.00,,,0.00,,2013-08-19 17:30:00,
2013-08-19 12:49:00,83.0,67.0,30.11,ESE,117,0.0,1.0,58,0.00,,,0.00,,2013-08-19 17:49:00,
2013-08-19 12:57:00,84.0,67.0,30.11,South,171,0.0,4.0,57,0.00,,,0.00,,2013-08-19 17:57:00,
2013-08-19 13:19:00,84.0,68.0,30.11,NE,44,0.0,0.0,58,0.00,,,0.00,,2013-08-19 18:19:00,
2013-08-19 13:28:00,84.0,68.0,30.11,SSE,150,0.0,1.0,58,0.00,,,0.00,,2013-08-19 18:28:00,
2013-08-19 13:50:00,-999.0,-99.9,30.10,East,90,0.0,1.0,58,0.00,,,0.00,,2013-08-19 18:50:00,
2013-08-19 14:00:00,-999.0,-99.9,30.10,NE,37,0.0,4.0,58,0.00,,,0.00,,2013-08-19 19:00:00,
2013-08-19 14:16:00,84.0,67.0,30.10,ENE,65,0.0,4.0,57,0.00,,,0.00,,2013-08-19 19:16:00,
2013-08-19 14:30:00,-999.0,-99.9,30.09,SSE,166,0.0,1.0,57,0.00,,,0.00,,2013-08-19 19:30:00,
2013-08-19 14:50:00,84.0,69.0,30.09,ENE,63,0.0,5.0,60,0.00,,,0.00,,2013-08-19 19:50:00,
2013-08-19 14:59:00,84.0,66.0,30.09,NNW,341,0.0,6.0,54,0.00,,,0.00,,2013-08-19 19:59:00,
2013-08-19 15:20:00,84.0,68.0,30.09,NE,55,0.0,2.0,59,0.00,,,0.00,,2013-08-19 20:20:00,
2013-08-19 15:30:00,84.0,-99.9,30.09,North,355,0.0,6.0,54,0.00,,,0.00,,2013-08-19 20:30:00,
2013-08-19 15:50:00,84.0,68.0,30.08,ESE,102,0.0,0.0,59,0.00,,,0.00,,2013-08-19 20:50:00,
2013-08-19 16:00:00,-999.0,-99.9,30.08,ENE,67,0.0,2.0,-999,-99.99,,,-99.99,,2013-08-19 21:00:00,
2013-08-19 16:16:00,85.0,67.0,30.07,NNE,15,0.0,0.0,55,0.00,,,0.00,,2013-08-19 21:16:00,
2013-08-19 16:25:00,85.0,68.0,30.07,NE,39,0.0,1.0,56,0.00,,,0.00,,2013-08-19 21:25:00,
2013-08-19 16:46:00,85.0,67.0,30.06,SE,128,0.0,1.0,55,0.00,,,0.00,,2013-08-19 21:46:00,
2013-08-19 16:55:00,85.0,68.0,30.06,South,178,0.0,0.0,56,0.00,,,0.00,,2013-08-19 21:55:00,
2013-08-19 17:25:00,85.0,67.0,30.06,NE,38,0.0,0.0,55,0.00,,,0.00,,2013-08-19 22:25:00,
2013-08-19 17:44:00,84.0,70.0,30.06,NE,38,0.0,0.0,63,0.00,,,0.00,,2013-08-19 22:44:00,
2013-08-19 17:55:00,83.0,70.0,30.06,NE,38,0.0,0.0,64,0.00,,,0.00,,2013-08-19 22:55:00,
2013-08-19 18:15:00,83.0,70.0,30.05,NE,38,0.0,0.0,65,0.00,,,0.00,,2013-08-19 23:15:00,
2013-08-19 18:25:00,83.0,70.0,30.05,NE,38,0.0,0.0,65,0.00,,,0.00,,2013-08-19 23:25:00,
2013-08-19 18:48:00,83.0,70.0,30.05,NE,38,0.0,0.0,65,0.00,,,0.00,,2013-08-19 23:48:00,
2013-08-19 18:55:00,83.0,71.0,30.04,NE,38,0.0,0.0,67,0.00,,,0.00,,2013-08-19 23:55:00,
2013-08-19 19:11:00,81.0,71.0,30.04,NE,38,0.0,0.0,71,0.00,,,0.00,,2013-08-20 00:11:00,
2013-08-19 19:24:00,79.0,70.0,30.05,NE,38,0.0,0.0,75,0.00,,,0.00,,2013-08-20 00:24:00,
2013-08-19 19:42:00,77.0,70.0,30.05,NE,38,0.0,0.0,79,0.00,,,0.00,,2013-08-20 00:42:00,
2013-08-19 19:52:00,76.0,70.0,30.05,NE,38,0.0,0.0,82,0.00,,,0.00,,2013-08-20 00:52:00,
2013-08-19 20:11:00,74.0,69.0,30.05,NE,38,0.0,0.0,85,0.00,,,0.00,,2013-08-20 01:11:00,
2013-08-19 20:42:00,73.0,69.0,30.06,NE,38,0.0,0.0,87,0.00,,,0.00,,2013-08-20 01:42:00,
2013-08-19 20:52:00,72.0,69.0,30.06,NE,38,0.0,0.0,89,0.00,,,0.00,,2013-08-20 01:52:00,
2013-08-19 21:11:00,70.0,67.0,30.06,NE,38,0.0,0.0,89,0.00,,,0.00,,2013-08-20 02:11:00,
2013-08-19 21:21:00,69.0,66.0,30.07,NE,38,0.0,0.0,90,0.00,,,0.00,,2013-08-20 02:21:00,
2013-08-19 21:42:00,69.0,66.0,30.07,NE,38,0.0,0.0,91,0.00,,,0.00,,2013-08-20 02:42:00,
2013-08-19 21:52:00,68.0,66.0,30.08,NE,38,0.0,0.0,92,0.00,,,0.00,,2013-08-20 02:52:00,
2013-08-19 22:11:00,68.0,66.0,30.08,NE,38,0.0,0.0,92,0.00,,,0.00,,2013-08-20 03:11:00,
2013-08-19 22:22:00,67.0,65.0,30.08,NE,38,0.0,0.0,93,0.00,,,0.00,,2013-08-20 03:22:00,
2013-08-19 22:43:00,67.0,65.0,30.08,NE,38,0.0,0.0,93,0.00,,,0.00,,2013-08-20 03:43:00,
2013-08-19 22:54:00,67.0,65.0,30.08,NE,38,0.0,0.0,93,0.00,,,0.00,,2013-08-20 03:54:00,
2013-08-19 23:13:00,66.0,64.0,30.09,NE,38,0.0,0.0,94,0.00,,,0.00,,2013-08-20 04:13:00,
2013-08-19 23:23:00,66.0,64.0,30.08,NE,38,0.0,0.0,94,0.00,,,0.00,,2013-08-20 04:23:00,
2013-08-19 23:43:00,66.0,64.0,30.08,NE,38,0.0,0.0,94,0.00,,,0.00,,2013-08-20 04:43:00,
2013-08-19 23:53:00,65.0,63.0,30.09,NE,38,0.0,0.0,94,0.00,,,0.00,,2013-08-20 04:53:00,